createdAt,value
2017-11-21T00:00:12.850Z,6.56
2017-11-21T00:01:27.000Z,6.46
2017-11-21T00:02:28.875Z,6.36
2017-11-21T00:03:30.753Z,6.46
2017-11-21T00:04:32.628Z,6.43
2017-11-21T00:05:34.439Z,6.41
2017-11-21T00:06:36.253Z,6.38
2017-11-21T00:07:38.132Z,6.34
2017-11-21T00:08:40.011Z,6.36
2017-11-21T00:09:41.886Z,6.38
2017-11-21T00:10:56.037Z,6.44
2017-11-21T00:11:57.916Z,6.48
2017-11-21T00:12:59.795Z,6.37
2017-11-21T00:14:01.670Z,6.37
2017-11-21T00:15:03.483Z,6.41
2017-11-21T00:16:05.296Z,6.33
2017-11-21T00:17:07.173Z,6.31
2017-11-21T00:18:09.049Z,6.25
2017-11-21T00:19:10.926Z,6.18
2017-11-21T00:20:25.072Z,6.17
2017-11-21T00:21:26.947Z,6.25
2017-11-21T00:22:28.833Z,6.18
2017-11-21T00:23:30.701Z,6.04
2017-11-21T00:24:32.513Z,5.99
2017-11-21T00:25:34.329Z,5.99
2017-11-21T00:26:36.199Z,6.06
2017-11-21T00:27:38.075Z,5.99
2017-11-21T00:28:39.947Z,5.93
2017-11-21T00:29:54.092Z,5.94
2017-11-21T00:30:55.968Z,5.96
2017-11-21T00:31:57.845Z,5.97
2017-11-21T00:32:59.715Z,5.97
2017-11-21T00:34:01.529Z,6.03
2017-11-21T00:35:03.348Z,6.03
2017-11-21T00:36:05.219Z,6.04
2017-11-21T00:37:07.094Z,6.09
2017-11-21T00:38:08.964Z,6.19
2017-11-21T00:39:23.114Z,6.28
2017-11-21T00:40:25.010Z,6.27
2017-11-21T00:41:26.867Z,6.17
2017-11-21T00:42:28.741Z,6.15
2017-11-21T00:43:30.552Z,6.00
2017-11-21T00:44:32.368Z,6.01
2017-11-21T00:45:34.242Z,6.00
2017-11-21T00:46:36.119Z,5.96
2017-11-21T00:47:37.991Z,5.99
2017-11-21T00:48:52.145Z,6.01
2017-11-21T00:49:54.029Z,6.06
2017-11-21T00:50:55.900Z,6.17
2017-11-21T00:51:57.773Z,6.19
2017-11-21T00:52:59.597Z,6.17
2017-11-21T00:54:01.398Z,6.21
2017-11-21T00:55:03.274Z,6.31
2017-11-21T00:56:05.154Z,6.28
2017-11-21T00:57:07.022Z,6.30
2017-11-21T00:58:21.176Z,6.33
2017-11-21T00:59:23.048Z,6.36
2017-11-21T01:00:24.922Z,6.33
2017-11-21T01:01:26.798Z,6.41
2017-11-21T01:02:28.609Z,6.38
2017-11-21T01:03:30.433Z,6.40
2017-11-21T01:04:32.249Z,6.40
2017-11-21T01:05:34.127Z,6.37
2017-11-21T01:06:36.000Z,6.40
2017-11-21T01:07:50.153Z,6.41
2017-11-21T01:08:52.025Z,6.30
2017-11-21T01:09:53.902Z,6.30
2017-11-21T01:10:55.778Z,6.25
2017-11-21T01:11:57.589Z,6.27
2017-11-21T01:12:59.402Z,6.31
2017-11-21T01:14:01.280Z,6.33
2017-11-21T01:15:03.159Z,6.33
2017-11-21T01:16:05.031Z,6.36
2017-11-21T01:17:19.185Z,6.30
2017-11-21T01:18:21.077Z,6.34
2017-11-21T01:19:22.940Z,6.38
2017-11-21T01:20:24.818Z,6.40
2017-11-21T01:21:26.628Z,6.44
2017-11-21T01:22:28.443Z,6.41
2017-11-21T01:23:30.319Z,6.43
2017-11-21T01:24:32.198Z,6.49
2017-11-21T01:25:34.072Z,6.51
2017-11-21T01:26:48.219Z,6.43
2017-11-21T01:27:50.095Z,6.49
2017-11-21T01:28:51.973Z,6.44
2017-11-21T01:29:53.844Z,6.44
2017-11-21T01:30:55.658Z,6.55
2017-11-21T01:31:57.475Z,6.52
2017-11-21T01:32:59.348Z,6.59
2017-11-21T01:34:01.223Z,6.55
2017-11-21T01:35:03.101Z,6.61
2017-11-21T01:36:17.243Z,6.51
2017-11-21T01:37:19.120Z,6.44
2017-11-21T01:38:20.995Z,6.44
2017-11-21T01:39:22.871Z,6.55
2017-11-21T01:40:24.682Z,6.51
2017-11-21T01:41:26.498Z,6.51
2017-11-21T01:42:28.370Z,6.55
2017-11-21T01:43:30.259Z,6.48
2017-11-21T01:44:32.119Z,6.49
2017-11-21T01:45:46.268Z,6.55
2017-11-21T01:46:48.140Z,6.52
2017-11-21T01:47:50.018Z,6.49
2017-11-21T01:48:51.892Z,6.54
2017-11-21T01:49:53.707Z,6.52
2017-11-21T01:50:55.522Z,6.52
2017-11-21T01:51:57.395Z,6.46
2017-11-21T01:52:59.273Z,6.54
2017-11-21T01:54:01.145Z,6.55
2017-11-21T01:55:15.292Z,6.55
2017-11-21T01:56:17.166Z,6.62
2017-11-21T01:57:19.041Z,6.55
2017-11-21T01:58:20.914Z,6.61
2017-11-21T01:59:22.729Z,6.49
2017-11-21T02:00:24.547Z,6.55
2017-11-21T02:01:26.423Z,6.55
2017-11-21T02:02:28.298Z,6.59
2017-11-21T02:03:30.173Z,6.54
2017-11-21T02:04:44.322Z,6.54
2017-11-21T02:05:46.198Z,6.51
2017-11-21T02:06:48.077Z,6.46
2017-11-21T02:07:49.951Z,6.52
2017-11-21T02:08:51.763Z,6.49
2017-11-21T02:09:53.576Z,6.51
2017-11-21T02:10:55.450Z,6.55
2017-11-21T02:11:57.325Z,6.52
2017-11-21T02:12:59.200Z,6.44
2017-11-21T02:14:13.349Z,6.44
2017-11-21T02:15:15.222Z,6.40
2017-11-21T02:16:17.097Z,6.41
2017-11-21T02:17:18.970Z,6.27
2017-11-21T02:18:20.781Z,6.38
2017-11-21T02:19:22.597Z,6.36
2017-11-21T02:20:24.471Z,6.28
2017-11-21T02:21:26.353Z,6.31
2017-11-21T02:22:34.234Z,6.28
2017-11-21T02:23:48.385Z,6.31
2017-11-21T02:24:50.264Z,6.37
2017-11-21T02:25:52.143Z,6.36
2017-11-21T02:26:54.022Z,6.36
2017-11-21T02:27:55.839Z,6.41
2017-11-21T02:28:57.658Z,6.31
2017-11-21T02:29:59.535Z,6.37
2017-11-21T02:31:01.411Z,6.33
2017-11-21T02:32:03.290Z,6.19
2017-11-21T02:33:17.439Z,6.15
2017-11-21T02:34:19.318Z,6.03
2017-11-21T02:35:21.200Z,6.03
2017-11-21T02:36:23.076Z,6.12
2017-11-21T02:37:24.895Z,6.00
2017-11-21T02:38:26.713Z,5.94
2017-11-21T02:39:28.591Z,6.01
2017-11-21T02:40:30.467Z,5.93
2017-11-21T02:41:32.347Z,5.82
2017-11-21T02:42:46.497Z,5.89
2017-11-21T02:43:48.382Z,5.85
2017-11-21T02:44:50.257Z,5.81
2017-11-21T02:45:52.134Z,5.89
2017-11-21T02:46:53.953Z,5.81
2017-11-21T02:47:55.775Z,5.93
2017-11-21T02:48:57.651Z,5.94
2017-11-21T02:49:59.524Z,5.99
2017-11-21T02:51:01.407Z,5.99
2017-11-21T02:52:15.556Z,5.97
2017-11-21T02:53:17.434Z,5.99
2017-11-21T02:54:19.313Z,6.03
2017-11-21T02:55:21.196Z,6.00
2017-11-21T02:56:23.017Z,6.06
2017-11-21T02:57:24.827Z,6.09
2017-11-21T02:58:26.705Z,6.06
2017-11-21T02:59:28.584Z,5.99
2017-11-21T03:00:30.464Z,5.94
2017-11-21T03:01:44.614Z,5.93
2017-11-21T03:02:46.490Z,5.96
2017-11-21T03:03:48.374Z,5.86
2017-11-21T03:04:50.254Z,5.89
2017-11-21T03:05:52.071Z,5.86
2017-11-21T03:06:53.885Z,5.83
2017-11-21T03:07:55.763Z,5.97
2017-11-21T03:08:57.644Z,5.86
2017-11-21T03:09:59.525Z,5.94
2017-11-21T03:11:13.725Z,6.03
2017-11-21T03:12:15.606Z,6.08
2017-11-21T03:13:17.486Z,6.09
2017-11-21T03:14:19.366Z,6.04
2017-11-21T03:15:21.181Z,5.97
2017-11-21T03:16:23.001Z,5.96
2017-11-21T03:17:24.881Z,5.89
2017-11-21T03:18:26.758Z,5.82
2017-11-21T03:19:28.637Z,5.81
2017-11-21T03:20:42.788Z,5.90
2017-11-21T03:21:44.668Z,5.76
2017-11-21T03:22:46.550Z,5.79
2017-11-21T03:23:48.430Z,5.86
2017-11-21T03:24:50.253Z,5.82
2017-11-21T03:25:52.061Z,5.74
2017-11-21T03:26:53.953Z,5.79
2017-11-21T03:27:55.821Z,5.75
2017-11-21T03:28:57.699Z,5.79
2017-11-21T03:30:11.902Z,5.82
2017-11-21T03:31:13.778Z,5.67
2017-11-21T03:32:15.657Z,5.83
2017-11-21T03:33:17.532Z,5.79
2017-11-21T03:34:19.350Z,5.90
2017-11-21T03:35:21.166Z,5.91
2017-11-21T03:36:23.042Z,5.94
2017-11-21T03:37:24.917Z,5.96
2017-11-21T03:38:26.799Z,6.00
2017-11-21T03:39:40.995Z,5.96
2017-11-21T03:40:42.877Z,5.94
2017-11-21T03:41:44.749Z,5.93
2017-11-21T03:42:46.625Z,5.99
2017-11-21T03:43:48.443Z,6.08
2017-11-21T03:44:50.258Z,6.12
2017-11-21T03:45:52.134Z,6.08
2017-11-21T03:46:54.043Z,6.12
2017-11-21T03:47:55.933Z,6.11
2017-11-21T03:49:10.081Z,6.17
2017-11-21T03:50:11.958Z,6.11
2017-11-21T03:51:13.842Z,6.15
2017-11-21T03:52:15.714Z,6.18
2017-11-21T03:53:17.528Z,6.15
2017-11-21T03:54:19.342Z,6.19
2017-11-21T03:55:21.217Z,6.19
2017-11-21T03:56:23.095Z,6.14
2017-11-21T03:57:24.974Z,6.22
2017-11-21T03:58:39.121Z,6.22
2017-11-21T03:59:40.997Z,6.25
2017-11-21T04:00:42.877Z,6.34
2017-11-21T04:01:44.752Z,6.34
2017-11-21T04:02:46.568Z,6.25
2017-11-21T04:03:48.384Z,6.19
2017-11-21T04:04:50.264Z,6.22
2017-11-21T04:05:52.139Z,6.21
2017-11-21T04:06:54.016Z,6.21
2017-11-21T04:08:08.168Z,6.21
2017-11-21T04:09:10.045Z,6.19
2017-11-21T04:10:11.925Z,6.03
2017-11-21T04:11:13.800Z,6.04
2017-11-21T04:12:15.617Z,6.03
2017-11-21T04:13:17.437Z,6.04
2017-11-21T04:14:19.311Z,6.00
2017-11-21T04:15:21.190Z,6.09
2017-11-21T04:16:23.073Z,6.11
2017-11-21T04:17:37.271Z,6.09
2017-11-21T04:18:39.152Z,6.12
2017-11-21T04:19:41.032Z,6.14
2017-11-21T04:20:42.911Z,6.15
2017-11-21T04:21:44.730Z,6.17
2017-11-21T04:22:46.551Z,6.22
2017-11-21T04:23:48.425Z,6.30
2017-11-21T04:24:50.303Z,6.36
2017-11-21T04:25:52.180Z,6.38
2017-11-21T04:27:06.330Z,6.48
2017-11-21T04:28:08.205Z,6.49
2017-11-21T04:29:10.086Z,6.49
2017-11-21T04:30:11.961Z,6.55
2017-11-21T04:31:13.777Z,6.58
2017-11-21T04:32:15.594Z,6.58
2017-11-21T04:33:17.474Z,6.56
2017-11-21T04:34:19.352Z,6.49
2017-11-21T04:35:21.231Z,6.46
2017-11-21T04:36:35.383Z,6.43
2017-11-21T04:37:37.260Z,6.43
2017-11-21T04:38:39.141Z,6.48
2017-11-21T04:39:41.026Z,6.46
2017-11-21T04:40:42.842Z,6.54
2017-11-21T04:41:44.695Z,6.46
2017-11-21T04:42:46.508Z,6.59
2017-11-21T04:43:48.390Z,6.64
2017-11-21T04:44:50.269Z,6.58
2017-11-21T04:46:04.418Z,6.58
2017-11-21T04:47:06.301Z,6.46
2017-11-21T04:48:08.177Z,6.43
2017-11-21T04:49:10.072Z,6.36
2017-11-21T04:50:11.873Z,6.37
2017-11-21T04:51:13.689Z,6.49
2017-11-21T04:52:15.570Z,6.43
2017-11-21T04:53:17.449Z,6.40
2017-11-21T04:54:19.329Z,6.33
2017-11-21T04:55:33.479Z,6.41
2017-11-21T04:56:35.356Z,6.38
2017-11-21T04:57:37.256Z,6.37
2017-11-21T04:58:39.117Z,6.28
2017-11-21T04:59:40.935Z,6.17
2017-11-21T05:00:42.753Z,6.25
2017-11-21T05:01:44.632Z,6.31
2017-11-21T05:02:46.511Z,6.27
2017-11-21T05:03:48.390Z,6.34
2017-11-21T05:05:02.544Z,6.37
2017-11-21T05:06:04.441Z,6.36
2017-11-21T05:07:06.303Z,6.40
2017-11-21T05:08:08.178Z,6.36
2017-11-21T05:09:09.997Z,6.37
2017-11-21T05:10:11.810Z,6.36
2017-11-21T05:11:13.690Z,6.34
2017-11-21T05:12:15.566Z,6.44
2017-11-21T05:13:17.445Z,6.44
2017-11-21T05:14:31.593Z,6.43
2017-11-21T05:15:33.471Z,6.36
2017-11-21T05:16:35.351Z,6.46
2017-11-21T05:17:37.226Z,6.37
2017-11-21T05:18:39.043Z,6.38
2017-11-21T05:19:40.861Z,6.36
2017-11-21T05:20:42.738Z,6.37
2017-11-21T05:21:44.613Z,6.36
2017-11-21T05:22:46.492Z,6.36
2017-11-21T05:24:00.641Z,6.43
2017-11-21T05:25:02.544Z,6.44
2017-11-21T05:26:04.399Z,6.49
2017-11-21T05:27:06.274Z,6.55
2017-11-21T05:28:08.092Z,6.46
2017-11-21T05:29:09.908Z,6.44
2017-11-21T05:30:11.781Z,6.51
2017-11-21T05:31:13.655Z,6.49
2017-11-21T05:32:15.529Z,6.36
2017-11-21T05:33:29.700Z,6.46
2017-11-21T05:34:31.584Z,6.33
2017-11-21T05:35:33.458Z,6.34
2017-11-21T05:36:35.335Z,6.34
2017-11-21T05:37:37.150Z,6.30
2017-11-21T05:38:38.965Z,6.30
2017-11-21T05:39:40.842Z,6.37
2017-11-21T05:40:42.721Z,6.30
2017-11-21T05:41:44.602Z,6.40
2017-11-21T05:42:58.744Z,6.40
2017-11-21T05:44:00.620Z,6.49
2017-11-21T05:45:02.501Z,6.34
2017-11-21T05:46:04.376Z,6.36
2017-11-21T05:47:06.194Z,6.38
2017-11-21T05:48:08.010Z,6.34
2017-11-21T05:49:09.884Z,6.40
2017-11-21T05:50:11.764Z,6.40
2017-11-21T05:51:13.636Z,6.44
2017-11-21T05:52:27.790Z,6.38
2017-11-21T05:53:29.665Z,6.46
2017-11-21T05:54:31.544Z,6.51
2017-11-21T05:55:33.419Z,6.49
2017-11-21T05:56:35.235Z,6.51
2017-11-21T05:57:37.050Z,6.43
2017-11-21T05:58:38.924Z,6.40
2017-11-21T05:59:40.809Z,6.34
2017-11-21T06:00:42.678Z,6.48
2017-11-21T06:01:56.885Z,6.46
2017-11-21T06:02:58.761Z,6.52
2017-11-21T06:04:00.637Z,6.51
2017-11-21T06:05:02.515Z,6.51
2017-11-21T06:06:04.329Z,6.54
2017-11-21T06:07:06.143Z,6.59
2017-11-21T06:08:08.018Z,6.54
2017-11-21T06:09:09.897Z,6.52
2017-11-21T06:10:11.771Z,6.43
2017-11-21T06:11:25.975Z,6.52
2017-11-21T06:12:27.851Z,6.46
2017-11-21T06:13:29.728Z,6.46
2017-11-21T06:14:31.606Z,6.48
2017-11-21T06:15:33.422Z,6.40
2017-11-21T06:16:35.243Z,6.37
2017-11-21T06:17:37.116Z,6.34
2017-11-21T06:18:38.992Z,6.21
2017-11-21T06:19:40.869Z,6.19
2017-11-21T06:20:55.070Z,6.14
2017-11-21T06:21:56.944Z,6.03
2017-11-21T06:22:58.826Z,6.01
2017-11-21T06:24:00.702Z,6.03
2017-11-21T06:25:02.519Z,6.00
2017-11-21T06:26:04.338Z,6.01
2017-11-21T06:27:06.214Z,6.06
2017-11-21T06:28:08.130Z,6.12
2017-11-21T06:29:10.015Z,6.03
2017-11-21T06:30:24.165Z,6.09
2017-11-21T06:31:26.043Z,6.06
2017-11-21T06:32:27.923Z,6.08
2017-11-21T06:33:29.800Z,6.08
2017-11-21T06:34:31.626Z,6.04
2017-11-21T06:35:33.440Z,6.03
2017-11-21T06:36:35.315Z,6.08
2017-11-21T06:37:37.191Z,5.94
2017-11-21T06:38:39.070Z,5.94
2017-11-21T06:39:53.222Z,6.04
2017-11-21T06:40:55.100Z,6.04
2017-11-21T06:41:56.979Z,6.03
2017-11-21T06:42:58.856Z,6.01
2017-11-21T06:44:00.677Z,6.01
2017-11-21T06:45:02.492Z,6.06
2017-11-21T06:46:04.370Z,6.09
2017-11-21T06:47:06.249Z,6.00
2017-11-21T06:48:08.127Z,5.94
2017-11-21T06:49:22.282Z,6.00
2017-11-21T06:50:24.159Z,5.94
2017-11-21T06:51:26.040Z,6.01
2017-11-21T06:52:27.918Z,5.99
2017-11-21T06:53:29.777Z,6.03
2017-11-21T06:54:31.596Z,6.14
2017-11-21T06:55:33.414Z,6.15
2017-11-21T06:56:35.289Z,6.33
2017-11-21T06:57:37.167Z,6.43
2017-11-21T06:58:51.382Z,6.44
2017-11-21T06:59:53.259Z,6.41
2017-11-21T07:00:55.139Z,6.61
2017-11-21T07:01:57.018Z,6.64
2017-11-21T07:02:58.836Z,6.67
2017-11-21T07:04:00.657Z,6.69
2017-11-21T07:05:02.533Z,6.71
2017-11-21T07:06:04.411Z,6.73
2017-11-21T07:07:06.290Z,6.81
2017-11-21T07:08:20.442Z,6.74
2017-11-21T07:09:22.323Z,6.73
2017-11-21T07:10:24.205Z,6.84
2017-11-21T07:11:26.084Z,6.85
2017-11-21T07:12:27.905Z,6.94
2017-11-21T07:13:29.725Z,6.94
2017-11-21T07:14:31.604Z,6.95
2017-11-21T07:15:33.488Z,6.92
2017-11-21T07:16:35.365Z,6.95
2017-11-21T07:17:49.519Z,6.88
2017-11-21T07:18:51.398Z,6.92
2017-11-21T07:19:53.276Z,6.95
2017-11-21T07:20:55.155Z,6.99
2017-11-21T07:21:56.978Z,6.91
2017-11-21T07:22:58.795Z,6.88
2017-11-21T07:24:00.673Z,6.85
2017-11-21T07:25:02.556Z,6.76
2017-11-21T07:26:04.436Z,6.77
2017-11-21T07:27:18.589Z,6.74
2017-11-21T07:28:20.465Z,6.74
2017-11-21T07:29:22.348Z,6.79
2017-11-21T07:30:24.228Z,6.80
2017-11-21T07:31:26.048Z,6.79
2017-11-21T07:32:27.869Z,6.69
2017-11-21T07:33:29.743Z,6.76
2017-11-21T07:34:31.620Z,6.70
2017-11-21T07:35:33.500Z,6.70
2017-11-21T07:36:47.652Z,6.64
2017-11-21T07:37:49.548Z,6.62
2017-11-21T07:38:51.412Z,6.76
2017-11-21T07:39:53.290Z,6.69
2017-11-21T07:40:55.113Z,6.79
2017-11-21T07:41:56.929Z,6.79
2017-11-21T07:42:58.812Z,6.76
2017-11-21T07:44:00.685Z,6.87
2017-11-21T07:45:02.563Z,6.79
2017-11-21T07:46:16.765Z,6.88
2017-11-21T07:47:18.642Z,6.87
2017-11-21T07:48:20.523Z,6.95
2017-11-21T07:49:22.410Z,6.97
2017-11-21T07:50:24.219Z,6.95
2017-11-21T07:51:26.041Z,6.95
2017-11-21T07:52:27.912Z,6.98
2017-11-21T07:53:29.795Z,7.02
2017-11-21T07:54:31.676Z,6.97
2017-11-21T07:55:45.878Z,7.03
2017-11-21T07:56:47.759Z,7.03
2017-11-21T07:57:49.637Z,7.09
2017-11-21T07:58:51.516Z,7.09
2017-11-21T07:59:53.340Z,7.05
2017-11-21T08:00:55.159Z,7.05
2017-11-21T08:01:57.036Z,6.92
2017-11-21T08:02:58.925Z,7.07
2017-11-21T08:04:00.796Z,6.99
2017-11-21T08:05:15.000Z,6.98
2017-11-21T08:06:16.879Z,7.02
2017-11-21T08:07:18.769Z,6.98
2017-11-21T08:08:20.642Z,7.09
2017-11-21T08:09:22.465Z,7.09
2017-11-21T08:10:24.283Z,7.07
2017-11-21T08:11:26.164Z,7.12
2017-11-21T08:12:28.051Z,7.15
2017-11-21T08:13:29.923Z,7.27
2017-11-21T08:14:44.081Z,7.23
2017-11-21T08:15:45.959Z,7.35
2017-11-21T08:16:47.846Z,7.28
2017-11-21T08:17:49.719Z,7.31
2017-11-21T08:18:51.545Z,7.42
2017-11-21T08:19:53.370Z,7.37
2017-11-21T08:20:55.249Z,7.35
2017-11-21T08:21:57.132Z,7.34
2017-11-21T08:22:59.011Z,7.32
2017-11-21T08:24:13.168Z,7.30
2017-11-21T08:25:15.051Z,7.40
2017-11-21T08:26:16.929Z,7.40
2017-11-21T08:27:18.807Z,7.55
2017-11-21T08:28:20.628Z,7.52
2017-11-21T08:29:22.449Z,7.49
2017-11-21T08:30:24.325Z,7.63
2017-11-21T08:31:26.209Z,7.60
2017-11-21T08:32:28.090Z,7.63
2017-11-21T08:33:42.245Z,7.57
2017-11-21T08:34:44.153Z,7.58
2017-11-21T08:35:46.024Z,7.68
2017-11-21T08:36:47.907Z,7.60
2017-11-21T08:37:49.728Z,7.67
2017-11-21T08:38:51.549Z,7.61
2017-11-21T08:39:53.427Z,7.60
2017-11-21T08:40:55.310Z,7.71
2017-11-21T08:41:57.196Z,7.83
2017-11-21T08:43:11.352Z,7.82
2017-11-21T08:44:13.233Z,7.83
2017-11-21T08:45:15.114Z,7.82
2017-11-21T08:46:16.996Z,7.80
2017-11-21T08:47:18.816Z,7.89
2017-11-21T08:48:20.651Z,7.90
2017-11-21T08:49:22.522Z,7.97
2017-11-21T08:50:24.404Z,7.95
2017-11-21T08:51:26.291Z,7.93
2017-11-21T08:52:40.441Z,7.90
2017-11-21T08:53:42.319Z,7.82
2017-11-21T08:54:44.237Z,7.83
2017-11-21T08:55:46.117Z,7.83
2017-11-21T08:56:47.939Z,7.82
2017-11-21T08:57:49.764Z,7.92
2017-11-21T08:58:51.644Z,7.83
2017-11-21T08:59:53.527Z,7.87
2017-11-21T09:00:55.407Z,7.95
2017-11-21T09:02:09.560Z,7.77
2017-11-21T09:03:11.456Z,7.72
2017-11-21T09:04:13.324Z,7.67
2017-11-21T09:05:15.208Z,7.79
2017-11-21T09:06:17.027Z,7.75
2017-11-21T09:07:18.849Z,7.82
2017-11-21T09:08:21.006Z,7.87
2017-11-21T09:09:22.852Z,7.86
2017-11-21T09:10:24.735Z,7.79
2017-11-21T09:11:38.950Z,7.75
2017-11-21T09:12:40.825Z,7.83
2017-11-21T09:13:42.711Z,7.83
2017-11-21T09:14:44.627Z,7.89
2017-11-21T09:15:46.424Z,7.92
2017-11-21T09:16:48.305Z,8.00
2017-11-21T09:17:50.232Z,7.82
2017-11-21T09:18:52.115Z,7.82
2017-11-21T09:19:54.059Z,7.77
2017-11-21T09:21:08.181Z,7.77
2017-11-21T09:22:10.063Z,7.77
2017-11-21T09:23:11.943Z,7.71
2017-11-21T09:24:13.827Z,7.77
2017-11-21T09:25:15.655Z,7.72
2017-11-21T09:26:17.476Z,7.58
2017-11-21T09:27:19.356Z,7.71
2017-11-21T09:28:21.237Z,7.75
2017-11-21T09:29:23.121Z,7.64
2017-11-21T09:30:37.277Z,7.71
2017-11-21T09:31:39.161Z,7.74
2017-11-21T09:32:41.039Z,7.67
2017-11-21T09:33:42.921Z,7.68
2017-11-21T09:34:44.747Z,7.69
2017-11-21T09:35:46.566Z,7.71
2017-11-21T09:36:48.445Z,7.64
2017-11-21T09:37:50.329Z,7.68
2017-11-21T09:38:52.211Z,7.69
2017-11-21T09:40:06.366Z,7.77
2017-11-21T09:41:08.245Z,7.63
2017-11-21T09:42:10.127Z,7.61
2017-11-21T09:43:12.006Z,7.69
2017-11-21T09:44:13.828Z,7.69
2017-11-21T09:45:15.645Z,7.71
2017-11-21T09:46:17.540Z,7.71
2017-11-21T09:47:19.421Z,7.63
2017-11-21T09:48:21.299Z,7.60
2017-11-21T09:49:35.454Z,7.53
2017-11-21T09:50:37.334Z,7.52
2017-11-21T09:51:39.216Z,7.52
2017-11-21T09:52:41.095Z,7.39
2017-11-21T09:53:42.919Z,7.39
2017-11-21T09:54:44.743Z,7.50
2017-11-21T09:55:46.620Z,7.55
2017-11-21T09:56:48.503Z,7.49
2017-11-21T09:57:50.384Z,7.49
2017-11-21T09:59:04.589Z,7.52
2017-11-21T10:00:06.472Z,7.50
2017-11-21T10:01:08.360Z,7.45
2017-11-21T10:02:10.234Z,7.52
2017-11-21T10:03:12.057Z,7.35
2017-11-21T10:04:13.878Z,7.39
2017-11-21T10:05:15.755Z,7.35
2017-11-21T10:06:17.635Z,7.35
2017-11-21T10:07:19.515Z,7.37
2017-11-21T10:08:33.670Z,7.31
2017-11-21T10:09:35.549Z,7.28
2017-11-21T10:10:37.432Z,7.39
2017-11-21T10:11:39.313Z,7.42
2017-11-21T10:12:41.134Z,7.42
2017-11-21T10:13:42.955Z,7.37
2017-11-21T10:14:44.834Z,7.50
2017-11-21T10:15:46.718Z,7.55
2017-11-21T10:16:48.599Z,7.48
2017-11-21T10:18:02.761Z,7.58
2017-11-21T10:19:04.652Z,7.64
2017-11-21T10:20:06.524Z,7.63
2017-11-21T10:21:08.405Z,7.63
2017-11-21T10:22:10.225Z,7.67
2017-11-21T10:23:12.048Z,7.75
2017-11-21T10:24:13.929Z,7.83
2017-11-21T10:25:15.814Z,7.79
2017-11-21T10:26:17.697Z,7.83
2017-11-21T10:27:31.902Z,7.85
2017-11-21T10:28:33.784Z,7.83
2017-11-21T10:29:35.665Z,7.80
2017-11-21T10:30:37.546Z,7.77
2017-11-21T10:31:39.369Z,7.82
2017-11-21T10:32:41.203Z,7.85
2017-11-21T10:33:43.071Z,7.83
2017-11-21T10:34:44.953Z,7.87
2017-11-21T10:35:46.837Z,7.93
2017-11-21T10:37:00.993Z,7.89
2017-11-21T10:38:02.876Z,8.04
2017-11-21T10:39:04.757Z,8.05
2017-11-21T10:40:06.639Z,8.07
2017-11-21T10:41:08.461Z,8.26
2017-11-21T10:42:10.287Z,8.33
2017-11-21T10:43:12.167Z,8.28
2017-11-21T10:44:14.049Z,8.34
2017-11-21T10:45:15.929Z,8.38
2017-11-21T10:46:30.091Z,8.38
2017-11-21T10:47:31.968Z,8.40
2017-11-21T10:48:33.849Z,8.44
2017-11-21T10:49:35.729Z,8.45
2017-11-21T10:50:37.553Z,8.53
2017-11-21T10:51:39.376Z,8.52
2017-11-21T10:52:41.257Z,8.53
2017-11-21T10:53:43.140Z,8.66
2017-11-21T10:54:45.023Z,8.55
2017-11-21T10:55:59.177Z,8.52
2017-11-21T10:57:01.060Z,8.50
2017-11-21T10:58:02.940Z,8.61
2017-11-21T10:59:04.820Z,8.62
2017-11-21T11:00:06.642Z,8.63
2017-11-21T11:01:08.462Z,8.65
2017-11-21T11:02:10.341Z,8.56
2017-11-21T11:03:12.223Z,8.65
2017-11-21T11:04:14.104Z,8.74
2017-11-21T11:05:28.263Z,8.81
2017-11-21T11:06:30.142Z,8.77
2017-11-21T11:07:32.027Z,8.77
2017-11-21T11:08:33.908Z,8.86
2017-11-21T11:09:35.733Z,8.79
2017-11-21T11:10:37.554Z,8.81
2017-11-21T11:11:39.441Z,8.83
2017-11-21T11:12:41.316Z,8.83
2017-11-21T11:13:43.197Z,8.89
2017-11-21T11:14:57.355Z,8.98
2017-11-21T11:15:59.235Z,9.08
2017-11-21T11:17:01.118Z,9.15
2017-11-21T11:18:02.999Z,9.11
2017-11-21T11:19:04.822Z,9.21
2017-11-21T11:20:06.645Z,9.26
2017-11-21T11:21:08.525Z,9.28
2017-11-21T11:22:10.409Z,9.32
2017-11-21T11:23:12.291Z,9.36
2017-11-21T11:24:26.452Z,9.38
2017-11-21T11:25:28.337Z,9.56
2017-11-21T11:26:30.212Z,9.51
2017-11-21T11:27:32.095Z,9.57
2017-11-21T11:28:33.917Z,9.58
2017-11-21T11:29:35.741Z,9.68
2017-11-21T11:30:37.625Z,9.74
2017-11-21T11:31:39.510Z,9.69
2017-11-21T11:32:41.392Z,9.84
2017-11-21T11:33:55.552Z,9.78
2017-11-21T11:34:57.433Z,9.84
2017-11-21T11:35:59.315Z,9.69
2017-11-21T11:37:01.199Z,9.64
2017-11-21T11:38:03.192Z,9.69
2017-11-21T11:39:05.094Z,9.69
2017-11-21T11:40:06.976Z,9.60
2017-11-21T11:41:08.852Z,9.71
2017-11-21T11:42:10.734Z,9.71
2017-11-21T11:43:24.892Z,9.71
2017-11-21T11:44:26.778Z,9.71
2017-11-21T11:45:28.659Z,9.86
2017-11-21T11:46:30.543Z,9.79
2017-11-21T11:47:32.367Z,9.81
2017-11-21T11:48:34.192Z,9.74
2017-11-21T11:49:36.074Z,9.71
2017-11-21T11:50:37.961Z,9.68
2017-11-21T11:51:39.839Z,9.81
2017-11-21T11:52:53.998Z,9.76
2017-11-21T11:53:55.882Z,9.90
2017-11-21T11:54:57.765Z,9.99
2017-11-21T11:55:59.646Z,10.02
2017-11-21T11:57:01.473Z,10.15
2017-11-21T11:58:03.299Z,10.20
2017-11-21T11:59:05.179Z,10.27
2017-11-21T12:00:07.064Z,10.23
2017-11-21T12:01:08.951Z,10.38
2017-11-21T12:02:23.110Z,10.45
2017-11-21T12:03:24.996Z,10.51
2017-11-21T12:04:26.881Z,10.48
2017-11-21T12:05:28.768Z,10.47
2017-11-21T12:06:30.601Z,10.52
2017-11-21T12:07:32.423Z,10.42
2017-11-21T12:08:34.349Z,10.38
2017-11-21T12:09:36.282Z,10.40
2017-11-21T12:10:38.162Z,10.42
2017-11-21T12:11:52.325Z,10.48
2017-11-21T12:12:54.208Z,10.52
2017-11-21T12:13:56.157Z,10.45
2017-11-21T12:14:58.037Z,10.45
2017-11-21T12:15:59.860Z,10.47
2017-11-21T12:17:01.695Z,10.52
2017-11-21T12:18:03.571Z,10.44
2017-11-21T12:19:05.455Z,10.55
2017-11-21T12:20:07.339Z,10.56
2017-11-21T12:21:21.511Z,10.55
2017-11-21T12:22:23.416Z,10.52
2017-11-21T12:23:25.312Z,10.59
2017-11-21T12:24:27.198Z,10.48
2017-11-21T12:25:29.027Z,10.38
2017-11-21T12:26:30.850Z,10.33
2017-11-21T12:27:32.732Z,10.20
2017-11-21T12:28:34.616Z,10.01
2017-11-21T12:29:36.503Z,9.99
2017-11-21T12:30:50.662Z,10.07
2017-11-21T12:31:52.546Z,10.02
2017-11-21T12:32:54.428Z,9.93
2017-11-21T12:33:56.309Z,9.97
2017-11-21T12:34:58.135Z,9.96
2017-11-21T12:35:59.960Z,10.01
2017-11-21T12:37:01.843Z,10.23
2017-11-21T12:38:03.759Z,10.15
2017-11-21T12:39:05.620Z,10.17
2017-11-21T12:40:19.828Z,10.20
2017-11-21T12:41:21.713Z,10.18
2017-11-21T12:42:23.598Z,10.30
2017-11-21T12:43:25.489Z,10.40
2017-11-21T12:44:27.312Z,10.40
2017-11-21T12:45:29.163Z,10.45
2017-11-21T12:46:31.061Z,10.42
2017-11-21T12:47:32.946Z,10.44
2017-11-21T12:48:34.908Z,10.45
2017-11-21T12:49:49.071Z,10.44
2017-11-21T12:50:50.954Z,10.51
2017-11-21T12:51:52.973Z,10.47
2017-11-21T12:52:54.855Z,10.40
2017-11-21T12:53:56.681Z,10.52
2017-11-21T12:54:58.504Z,10.47
2017-11-21T12:56:00.391Z,10.42
2017-11-21T12:57:02.281Z,10.47
2017-11-21T12:58:04.186Z,10.38
2017-11-21T12:59:18.375Z,10.25
2017-11-21T13:00:20.324Z,10.29
2017-11-21T13:01:22.210Z,10.25
2017-11-21T13:02:24.094Z,10.14
2017-11-21T13:03:25.928Z,10.26
2017-11-21T13:04:27.741Z,10.30
2017-11-21T13:05:29.648Z,10.32
2017-11-21T13:06:31.519Z,10.44
2017-11-21T13:07:33.404Z,10.52
2017-11-21T13:08:47.632Z,10.45
2017-11-21T13:09:49.499Z,10.45
2017-11-21T13:10:51.386Z,10.41
2017-11-21T13:11:53.269Z,10.44
2017-11-21T13:12:55.094Z,10.48
2017-11-21T13:13:56.917Z,10.41
2017-11-21T13:14:58.761Z,10.47
2017-11-21T13:16:00.586Z,10.47
2017-11-21T13:17:02.461Z,10.40
2017-11-21T13:18:16.758Z,10.45
2017-11-21T13:19:18.740Z,10.51
2017-11-21T13:20:20.681Z,10.36
2017-11-21T13:21:22.568Z,10.30
2017-11-21T13:22:24.392Z,10.25
2017-11-21T13:23:26.225Z,10.36
2017-11-21T13:24:28.102Z,10.27
2017-11-21T13:25:29.986Z,10.22
2017-11-21T13:26:31.965Z,10.20
2017-11-21T13:27:46.164Z,10.18
2017-11-21T13:28:48.052Z,10.33
2017-11-21T13:29:49.969Z,10.29
2017-11-21T13:30:51.952Z,10.34
2017-11-21T13:31:53.812Z,10.36
2017-11-21T13:32:55.637Z,10.25
2017-11-21T13:33:57.531Z,10.26
2017-11-21T13:34:59.489Z,10.22
2017-11-21T13:36:01.384Z,10.07
2017-11-21T13:37:15.543Z,10.07
2017-11-21T13:38:17.425Z,10.17
2017-11-21T13:39:19.308Z,10.04
2017-11-21T13:40:21.190Z,10.11
2017-11-21T13:41:23.016Z,10.02
2017-11-21T13:42:24.838Z,9.97
2017-11-21T13:43:26.722Z,10.02
2017-11-21T13:44:28.609Z,10.09
2017-11-21T13:45:30.491Z,10.07
2017-11-21T13:46:44.652Z,10.08
2017-11-21T13:47:46.539Z,10.08
2017-11-21T13:48:48.421Z,10.17
2017-11-21T13:49:50.303Z,10.12
2017-11-21T13:50:52.166Z,9.96
2017-11-21T13:51:53.964Z,10.01
2017-11-21T13:52:55.847Z,9.99
2017-11-21T13:53:57.732Z,9.99
2017-11-21T13:54:59.635Z,10.05
2017-11-21T13:56:13.828Z,10.09
2017-11-21T13:57:15.714Z,10.05